Time;durP1;ratioP1;P1;durP2;ratioP2;P2;SDS_P1;SDS_P2;PMS_P1;PMS_P2;Temp;Humidity;BMP_temperature;BMP_pressure;BME280_temperature;BME280_humidity;BME280_pressure;Samples;Min_cycle;Max_cycle;Signal;HPM_P1;HPM_P2
2022/06/10 00:00:06;;;;;;;6.03;3.50;;;;;;;;;;5081897;28;20482;-63
2022/06/10 00:02:32;;;;;;;10.30;3.70;;;;;;;;;;5085801;28;20044;-63
2022/06/10 00:04:58;;;;;;;7.47;3.10;;;;;;;;;;5071971;28;20040;-63
2022/06/10 00:07:24;;;;;;;7.07;3.45;;;;;;;;;;5083932;28;20082;-63
2022/06/10 00:09:50;;;;;;;5.95;3.08;;;;;;;;;;5081886;28;20039;-63
2022/06/10 00:12:16;;;;;;;9.05;3.35;;;;;;;;;;5070844;28;20041;-63
2022/06/10 00:14:42;;;;;;;9.82;3.53;;;;;;;;;;5072017;28;20051;-64
2022/06/10 00:17:09;;;;;;;7.65;3.38;;;;;;;;;;5074833;28;20050;-63
2022/06/10 00:19:35;;;;;;;7.65;3.60;;;;;;;;;;5064368;28;20040;-63
2022/06/10 00:22:01;;;;;;;7.25;3.33;;;;;;;;;;5070947;28;20044;-63
2022/06/10 00:24:27;;;;;;;11.85;3.38;;;;;;;;;;5075644;28;20047;-63
2022/06/10 00:26:54;;;;;;;8.30;3.47;;;;;;;;;;5086199;28;20483;-63
2022/06/10 00:29:20;;;;;;;9.25;3.13;;;;;;;;;;5072147;28;20076;-63
2022/06/10 00:31:46;;;;;;;4.45;3.10;;;;;;;;;;5070647;28;20044;-63
2022/06/10 00:34:12;;;;;;;4.70;3.28;;;;;;;;;;5053761;28;20086;-63
2022/06/10 00:36:38;;;;;;;7.65;3.35;;;;;;;;;;5074804;28;20037;-63
2022/06/10 00:39:04;;;;;;;7.13;3.30;;;;;;;;;;5081751;28;20032;-63
2022/06/10 00:41:30;;;;;;;5.68;3.25;;;;;;;;;;5066852;28;20040;-63
2022/06/10 00:43:56;;;;;;;8.95;3.47;;;;;;;;;;5069999;28;20040;-63
2022/06/10 00:46:34;;;;;;;7.85;3.67;;;;;;;;;;5073672;28;20050;-63
2022/06/10 00:49:03;;;;;;;8.10;3.67;;;;;;;;;;5083585;28;20089;-63
2022/06/10 00:51:34;;;;;;;5.30;3.30;;;;;;;;;;5075709;28;20536;-64
2022/06/10 00:54:04;;;;;;;5.90;3.58;;;;;;;;;;5052616;28;20067;-64
2022/06/10 00:56:32;;;;;;;9.33;3.73;;;;;;;;;;5080550;28;20585;-64
2022/06/10 00:59:01;;;;;;;8.43;3.72;;;;;;;;;;5069349;28;20040;-64
2022/06/10 01:01:29;;;;;;;11.30;3.80;;;;;;;;;;5069412;28;20119;-64
2022/06/10 01:03:55;;;;;;;8.00;3.92;;;;;;;;;;5071360;28;20105;-64
2022/06/10 01:06:21;;;;;;;9.43;3.90;;;;;;;;;;5070294;28;20513;-64
2022/06/10 01:08:49;;;;;;;7.55;3.47;;;;;;;;;;5052990;28;20045;-64
2022/06/10 01:11:14;;;;;;;7.97;3.40;;;;;;;;;;5072628;28;20040;-64
2022/06/10 01:13:40;;;;;;;9.13;3.75;;;;;;;;;;5065890;28;20082;-64
2022/06/10 01:16:14;;;;;;;8.40;3.83;;;;;;;;;;5069868;28;20036;-63
2022/06/10 01:19:04;;;;;;;11.50;3.63;;;;;;;;;;5081031;28;20036;-64
2022/06/10 01:21:48;;;;;;;11.18;4.20;;;;;;;;;;5076196;28;20048;-64
2022/06/10 01:24:32;;;;;;;11.48;4.07;;;;;;;;;;5076812;28;20044;-64
2022/06/10 01:30:08;;;;;;;9.55;4.07;;;;;;;;;;5076535;28;20044;-64
2022/06/10 01:32:34;;;;;;;;;;;;;;;;;;5080452;28;20039;-63
2022/06/10 01:35:02;;;;;;;11.15;4.10;;;;;;;;;;5076230;28;19998;-64
2022/06/10 01:37:33;;;;;;;4.88;3.15;;;;;;;;;;5088368;28;20408;-64
2022/06/10 01:40:18;;;;;;;10.05;4.05;;;;;;;;;;5075179;28;20549;-64
2022/06/10 01:43:04;;;;;;;9.70;4.20;;;;;;;;;;5060903;28;20079;-64
2022/06/10 01:45:36;;;;;;;6.55;3.83;;;;;;;;;;5076844;28;20040;-64
2022/06/10 01:48:11;;;;;;;6.70;3.72;;;;;;;;;;5069858;28;20091;-64
2022/06/10 01:50:40;;;;;;;9.48;3.95;;;;;;;;;;5062652;28;20421;-64
2022/06/10 01:53:09;;;;;;;8.13;3.92;;;;;;;;;;5076095;28;20402;-64
2022/06/10 01:55:38;;;;;;;6.00;3.25;;;;;;;;;;5081097;28;20036;-65
2022/06/10 01:58:09;;;;;;;6.57;3.60;;;;;;;;;;5071901;28;20036;-64
2022/06/10 02:00:37;;;;;;;7.30;3.65;;;;;;;;;;5071531;28;20118;-65
2022/06/10 02:03:09;;;;;;;7.22;3.67;;;;;;;;;;5078144;28;20046;-64
2022/06/10 02:05:41;;;;;;;11.65;4.43;;;;;;;;;;5073638;28;20123;-65
2022/06/10 02:08:07;;;;;;;6.05;3.63;;;;;;;;;;5086127;28;20039;-65
2022/06/10 02:10:36;;;;;;;7.55;3.80;;;;;;;;;;5099694;22;20036;-63
2022/06/10 02:13:06;;;;;;;10.43;3.97;;;;;;;;;;5108174;28;20552;-63
2022/06/10 02:15:46;;;;;;;8.55;3.72;;;;;;;;;;5105912;28;20035;-63
2022/06/10 02:18:19;;;;;;;6.50;3.63;;;;;;;;;;5108506;28;20043;-63
2022/06/10 02:20:48;;;;;;;6.97;4.10;;;;;;;;;;5108906;28;20047;-63
2022/06/10 02:23:17;;;;;;;9.52;3.85;;;;;;;;;;5096529;28;20052;-63
2022/06/10 02:25:44;;;;;;;7.68;3.55;;;;;;;;;;5095363;28;20120;-63
2022/06/10 02:28:12;;;;;;;8.10;3.88;;;;;;;;;;5093461;28;20032;-63
2022/06/10 02:30:38;;;;;;;6.82;3.47;;;;;;;;;;5091074;28;20036;-63
2022/06/10 02:33:04;;;;;;;7.03;3.60;;;;;;;;;;5092218;28;20044;-63
2022/06/10 02:35:35;;;;;;;7.78;3.63;;;;;;;;;;5093141;28;20501;-63
2022/06/10 02:38:12;;;;;;;11.18;3.90;;;;;;;;;;5090167;28;20050;-63
2022/06/10 02:40:58;;;;;;;7.03;3.90;;;;;;;;;;5081596;28;20500;-63
2022/06/10 02:43:40;;;;;;;9.23;3.70;;;;;;;;;;5087419;28;20387;-63
2022/06/10 02:46:09;;;;;;;9.90;4.10;;;;;;;;;;5089009;28;20032;-63
2022/06/10 02:49:00;;;;;;;9.63;4.25;;;;;;;;;;5082401;28;20097;-63
2022/06/10 02:51:27;;;;;;;7.85;4.30;;;;;;;;;;5089449;28;20055;-63
2022/06/10 02:53:53;;;;;;;6.07;4.18;;;;;;;;;;5088490;28;21565;-63
2022/06/10 02:56:24;;;;;;;10.18;4.13;;;;;;;;;;5085255;28;20500;-63
2022/06/10 03:01:48;;;;;;;13.57;3.72;;;;;;;;;;5081090;28;20082;-63
2022/06/10 03:04:16;;;;;;;9.68;4.20;;;;;;;;;;5085883;28;20080;-63
2022/06/10 03:06:42;;;;;;;12.68;4.43;;;;;;;;;;5090815;28;20527;-63
2022/06/10 03:09:17;;;;;;;7.97;3.75;;;;;;;;;;5088180;28;20032;-63
2022/06/10 03:12:06;;;;;;;9.20;3.50;;;;;;;;;;5087296;28;20032;-63
2022/06/10 03:14:44;;;;;;;11.85;4.28;;;;;;;;;;5087545;28;20040;-63
2022/06/10 03:17:33;;;;;;;8.35;4.63;;;;;;;;;;5089367;28;20059;-63
2022/06/10 03:20:11;;;;;;;10.13;4.30;;;;;;;;;;5086615;28;20537;-63
2022/06/10 03:22:43;;;;;;;11.80;4.10;;;;;;;;;;5051697;28;20048;-63
2022/06/10 03:25:18;;;;;;;8.25;4.07;;;;;;;;;;5087149;28;20055;-63
2022/06/10 03:28:03;;;;;;;6.53;3.97;;;;;;;;;;5085063;28;20050;-63
2022/06/10 03:30:35;;;;;;;9.48;4.55;;;;;;;;;;5086612;28;20059;-63
2022/06/10 03:33:04;;;;;;;8.38;3.90;;;;;;;;;;5085337;28;20044;-63
2022/06/10 03:35:35;;;;;;;7.80;4.53;;;;;;;;;;5085133;28;20501;-62
2022/06/10 03:38:03;;;;;;;9.63;3.90;;;;;;;;;;5064806;28;20582;-63
2022/06/10 03:40:30;;;;;;;11.00;4.18;;;;;;;;;;5088328;28;20564;-63
2022/06/10 03:42:57;;;;;;;10.05;4.35;;;;;;;;;;5088609;28;20032;-63
2022/06/10 03:45:25;;;;;;;10.70;4.47;;;;;;;;;;5087768;28;20465;-63
2022/06/10 03:47:51;;;;;;;10.70;4.88;;;;;;;;;;5086994;28;20051;-63
2022/06/10 03:50:19;;;;;;;6.68;4.00;;;;;;;;;;5086733;28;20267;-63
2022/06/10 03:52:46;;;;;;;7.63;3.63;;;;;;;;;;5089701;28;20036;-63
2022/06/10 03:55:16;;;;;;;5.53;3.95;;;;;;;;;;5089461;28;20047;-63
2022/06/10 03:57:42;;;;;;;7.78;4.25;;;;;;;;;;5084985;28;20090;-63
2022/06/10 04:00:08;;;;;;;6.78;4.50;;;;;;;;;;5086628;28;20091;-63
2022/06/10 04:02:34;;;;;;;9.60;4.72;;;;;;;;;;5080526;28;20043;-63
2022/06/10 04:05:00;;;;;;;7.03;4.63;;;;;;;;;;5083932;28;20101;-63
2022/06/10 04:07:26;;;;;;;10.05;4.80;;;;;;;;;;5084144;28;20480;-63
2022/06/10 04:09:52;;;;;;;9.38;4.65;;;;;;;;;;5085815;28;20059;-63
2022/06/10 04:12:21;;;;;;;7.95;4.40;;;;;;;;;;5086470;28;20119;-63
2022/06/10 04:14:47;;;;;;;10.02;4.97;;;;;;;;;;5086489;28;20127;-63
2022/06/10 04:17:14;;;;;;;9.02;5.30;;;;;;;;;;5085378;28;20671;-63
2022/06/10 04:19:40;;;;;;;11.05;5.03;;;;;;;;;;5083919;28;20413;-63
2022/06/10 04:22:06;;;;;;;10.35;4.75;;;;;;;;;;5089442;28;20122;-63
2022/06/10 04:24:32;;;;;;;6.18;4.50;;;;;;;;;;5086176;28;20097;-63
2022/06/10 04:26:58;;;;;;;9.35;4.80;;;;;;;;;;5087106;28;21186;-63
2022/06/10 04:29:24;;;;;;;9.80;4.68;;;;;;;;;;5085170;28;20122;-63
2022/06/10 04:31:50;;;;;;;7.57;4.90;;;;;;;;;;5083133;28;20080;-63
2022/06/10 04:34:16;;;;;;;11.77;5.45;;;;;;;;;;5065380;28;20044;-63
2022/06/10 04:36:42;;;;;;;10.27;5.70;;;;;;;;;;5083026;28;20085;-63
2022/06/10 04:39:08;;;;;;;10.63;5.88;;;;;;;;;;5086075;28;20097;-63
2022/06/10 04:41:34;;;;;;;9.90;5.47;;;;;;;;;;5083965;28;20071;-63
2022/06/10 04:44:01;;;;;;;11.25;6.80;;;;;;;;;;5085291;28;20122;-63
2022/06/10 04:46:30;;;;;;;10.65;6.10;;;;;;;;;;5081884;28;20043;-63
2022/06/10 04:48:56;;;;;;;13.02;6.45;;;;;;;;;;5085770;28;20028;-63
2022/06/10 04:51:22;;;;;;;12.02;6.15;;;;;;;;;;5087501;28;20436;-63
2022/06/10 04:53:48;;;;;;;12.75;6.78;;;;;;;;;;5083968;28;20039;-63
2022/06/10 04:56:14;;;;;;;12.82;6.03;;;;;;;;;;5064897;28;20036;-63
2022/06/10 04:58:40;;;;;;;11.45;6.65;;;;;;;;;;5083794;28;20093;-63
2022/06/10 05:01:07;;;;;;;14.63;7.00;;;;;;;;;;5083656;28;20044;-63
2022/06/10 05:03:33;;;;;;;13.00;6.50;;;;;;;;;;5085169;28;20749;-63
2022/06/10 05:05:59;;;;;;;11.68;7.10;;;;;;;;;;5091777;28;20089;-63
2022/06/10 05:08:25;;;;;;;11.55;6.70;;;;;;;;;;5088931;28;20032;-63
2022/06/10 05:10:51;;;;;;;11.88;6.80;;;;;;;;;;5071173;28;20048;-63
2022/06/10 05:13:18;;;;;;;11.00;7.38;;;;;;;;;;5085669;28;20055;-63
2022/06/10 05:15:44;;;;;;;11.60;6.60;;;;;;;;;;5087828;28;20122;-63
2022/06/10 05:18:11;;;;;;;15.93;7.45;;;;;;;;;;5089960;28;20039;-63
2022/06/10 05:20:40;;;;;;;13.45;6.63;;;;;;;;;;5090059;28;20393;-63
2022/06/10 05:23:07;;;;;;;12.00;6.63;;;;;;;;;;5089007;28;20033;-63
2022/06/10 05:25:33;;;;;;;13.27;6.50;;;;;;;;;;5085220;28;20054;-63
2022/06/10 05:27:59;;;;;;;12.75;7.22;;;;;;;;;;5088115;28;20038;-63
2022/06/10 05:30:27;;;;;;;15.48;6.45;;;;;;;;;;5089331;28;20046;-63
2022/06/10 05:32:53;;;;;;;12.55;6.07;;;;;;;;;;5084342;28;20225;-63
2022/06/10 05:35:19;;;;;;;16.92;5.82;;;;;;;;;;5085445;28;20176;-63
2022/06/10 05:37:48;;;;;;;15.43;6.43;;;;;;;;;;5071167;28;20064;-63
2022/06/10 05:40:15;;;;;;;11.07;5.82;;;;;;;;;;5087208;28;20028;-63
2022/06/10 05:42:43;;;;;;;12.15;6.07;;;;;;;;;;5086785;28;20474;-63
2022/06/10 05:45:09;;;;;;;11.65;5.53;;;;;;;;;;5087241;28;20036;-63
2022/06/10 05:47:36;;;;;;;12.15;5.38;;;;;;;;;;5089667;28;20089;-63
2022/06/10 05:50:05;;;;;;;13.30;5.57;;;;;;;;;;5086463;28;20109;-63
2022/06/10 05:52:31;;;;;;;11.20;5.20;;;;;;;;;;5087240;28;20032;-63
2022/06/10 05:55:00;;;;;;;11.57;5.00;;;;;;;;;;5092077;28;20263;-63
2022/06/10 05:57:26;;;;;;;10.45;5.07;;;;;;;;;;5085384;28;20067;-63
2022/06/10 05:59:52;;;;;;;8.13;5.30;;;;;;;;;;5084659;28;20041;-63
2022/06/10 06:02:19;;;;;;;11.05;5.63;;;;;;;;;;5081522;28;20100;-63
2022/06/10 06:04:45;;;;;;;12.75;5.65;;;;;;;;;;5087692;28;20040;-63
2022/06/10 06:07:16;;;;;;;11.60;5.30;;;;;;;;;;5087734;28;20404;-63
2022/06/10 06:09:42;;;;;;;16.27;5.50;;;;;;;;;;5094711;28;20508;-63
2022/06/10 06:12:09;;;;;;;10.25;5.13;;;;;;;;;;5089116;28;20302;-63
2022/06/10 06:14:35;;;;;;;12.27;5.10;;;;;;;;;;5093595;28;20400;-63
2022/06/10 06:17:02;;;;;;;11.93;5.28;;;;;;;;;;5093687;28;20036;-63
2022/06/10 06:19:29;;;;;;;11.63;5.15;;;;;;;;;;5091275;28;20032;-63
2022/06/10 06:21:55;;;;;;;12.20;4.85;;;;;;;;;;5091314;28;20516;-63
2022/06/10 06:24:21;;;;;;;11.13;4.72;;;;;;;;;;5090880;28;20060;-63
2022/06/10 06:26:47;;;;;;;15.70;5.13;;;;;;;;;;5092758;28;20063;-63
2022/06/10 06:29:13;;;;;;;18.90;5.22;;;;;;;;;;5088249;28;20044;-64
2022/06/10 06:31:39;;;;;;;15.50;5.70;;;;;;;;;;5092306;28;20036;-63
2022/06/10 06:34:06;;;;;;;10.25;4.82;;;;;;;;;;5074613;28;20052;-63
2022/06/10 06:36:39;;;;;;;14.02;5.00;;;;;;;;;;5090844;28;20570;-63
2022/06/10 06:39:06;;;;;;;9.50;4.57;;;;;;;;;;5090062;28;20040;-64
2022/06/10 06:41:32;;;;;;;14.13;6.00;;;;;;;;;;5090333;28;20036;-64
2022/06/10 06:43:58;;;;;;;10.15;5.28;;;;;;;;;;5091526;28;20047;-63
2022/06/10 06:46:24;;;;;;;13.60;5.07;;;;;;;;;;5090698;28;20043;-64
2022/06/10 06:48:50;;;;;;;13.10;4.65;;;;;;;;;;5074350;28;20036;-63
2022/06/10 06:51:16;;;;;;;12.50;4.80;;;;;;;;;;5086260;28;20032;-64
2022/06/10 06:53:42;;;;;;;13.48;4.88;;;;;;;;;;5092723;28;20497;-63
2022/06/10 06:56:09;;;;;;;13.15;4.50;;;;;;;;;;5088433;28;20046;-63
2022/06/10 06:58:35;;;;;;;11.82;5.25;;;;;;;;;;5089259;28;20042;-63
2022/06/10 07:01:01;;;;;;;16.60;5.55;;;;;;;;;;5087513;28;20036;-63
2022/06/10 07:03:27;;;;;;;13.55;5.60;;;;;;;;;;5086703;28;20090;-63
2022/06/10 07:05:53;;;;;;;12.75;5.60;;;;;;;;;;5087517;28;20127;-63
2022/06/10 07:08:20;;;;;;;15.05;6.05;;;;;;;;;;5088778;28;20040;-63
2022/06/10 07:10:46;;;;;;;14.13;6.20;;;;;;;;;;5090362;28;20039;-64
2022/06/10 07:13:12;;;;;;;16.20;5.88;;;;;;;;;;5093268;28;20040;-64
2022/06/10 07:15:40;;;;;;;10.25;6.10;;;;;;;;;;5091839;28;20035;-64
2022/06/10 07:18:06;;;;;;;13.80;6.38;;;;;;;;;;5093114;28;20040;-63
2022/06/10 07:20:33;;;;;;;14.00;7.10;;;;;;;;;;5073243;28;20047;-63
2022/06/10 07:23:00;;;;;;;14.18;6.70;;;;;;;;;;5092269;28;20409;-64
2022/06/10 07:25:26;;;;;;;16.45;7.43;;;;;;;;;;5088939;28;20105;-63
2022/06/10 07:27:53;;;;;;;13.85;7.03;;;;;;;;;;5093384;28;20040;-63
2022/06/10 07:30:24;;;;;;;15.95;7.10;;;;;;;;;;5090268;28;20067;-63
2022/06/10 07:32:49;;;;;;;;;;;;;;;;;;5087252;28;20044;-63
2022/06/10 07:35:18;;;;;;;12.20;6.45;;;;;;;;;;5093521;28;19919;-63
2022/06/10 07:37:45;;;;;;;12.48;7.05;;;;;;;;;;5087084;28;20037;-63
2022/06/10 07:41:56;;;;;;;14.10;6.85;;;;;;;;;;5088528;28;20093;-63
2022/06/10 07:42:58;;;;;;;14.32;6.28;;;;;;;;;;5093196;28;20090;-63
2022/06/10 07:45:24;;;;;;;17.80;7.03;;;;;;;;;;5092880;28;20093;-63
2022/06/10 07:47:50;;;;;;;12.00;6.18;;;;;;;;;;5092942;28;20036;-63
2022/06/10 07:50:17;;;;;;;13.18;6.30;;;;;;;;;;5083337;28;20094;-63
2022/06/10 07:52:43;;;;;;;14.65;5.70;;;;;;;;;;5092196;28;20036;-64
2022/06/10 07:55:09;;;;;;;17.92;6.47;;;;;;;;;;5092601;28;20481;-63
2022/06/10 07:57:35;;;;;;;12.65;5.43;;;;;;;;;;5092782;28;20101;-63
2022/06/10 08:00:01;;;;;;;14.13;5.97;;;;;;;;;;5090493;28;20036;-63
2022/06/10 08:02:27;;;;;;;10.75;6.05;;;;;;;;;;5083896;28;20047;-64
2022/06/10 08:04:53;;;;;;;13.23;6.18;;;;;;;;;;5093218;28;20092;-63
2022/06/10 08:07:20;;;;;;;12.77;5.55;;;;;;;;;;5083509;28;20493;-64
2022/06/10 08:09:46;;;;;;;14.38;5.65;;;;;;;;;;5090861;28;20071;-63
2022/06/10 08:12:12;;;;;;;11.38;4.97;;;;;;;;;;5119842;22;20075;-66
2022/06/10 08:14:38;;;;;;;10.13;5.32;;;;;;;;;;5095086;28;20118;-67
2022/06/10 08:17:06;;;;;;;11.57;5.40;;;;;;;;;;5113327;28;20088;-67
2022/06/10 08:19:33;;;;;;;11.48;5.40;;;;;;;;;;5091844;28;20043;-66
2022/06/10 08:24:44;;;;;;;12.07;5.43;;;;;;;;;;5126865;27;20035;-65
2022/06/10 08:27:10;;;;;;;13.88;5.78;;;;;;;;;;5092760;28;20043;-65
2022/06/10 08:29:36;;;;;;;8.55;4.70;;;;;;;;;;5112397;28;20039;-65
2022/06/10 08:32:02;;;;;;;9.88;4.97;;;;;;;;;;5121241;27;20077;-65
2022/06/10 08:34:28;;;;;;;12.77;5.13;;;;;;;;;;5115804;27;20031;-65
2022/06/10 08:36:54;;;;;;;12.70;5.35;;;;;;;;;;5118353;27;20478;-65
2022/06/10 08:39:20;;;;;;;12.68;5.15;;;;;;;;;;5113204;27;20035;-65
2022/06/10 08:41:52;;;;;;;11.10;5.32;;;;;;;;;;5101278;28;20301;-65
2022/06/10 08:44:21;;;;;;;11.60;5.53;;;;;;;;;;5120409;27;20069;-65
2022/06/10 08:46:57;;;;;;;10.02;5.32;;;;;;;;;;5112505;28;20480;-65
2022/06/10 08:49:41;;;;;;;18.83;5.72;;;;;;;;;;5122169;27;20117;-66
2022/06/10 08:52:10;;;;;;;13.13;5.60;;;;;;;;;;5123737;27;20048;-65
2022/06/10 08:54:42;;;;;;;12.05;5.72;;;;;;;;;;5112449;28;20036;-65
2022/06/10 08:57:21;;;;;;;12.05;5.50;;;;;;;;;;5112591;28;20040;-65
2022/06/10 08:59:48;;;;;;;15.30;6.10;;;;;;;;;;5116356;27;20035;-65
2022/06/10 09:02:34;;;;;;;13.07;5.45;;;;;;;;;;5123134;27;20035;-65
2022/06/10 09:05:00;;;;;;;10.30;5.35;;;;;;;;;;5123814;27;20125;-65
2022/06/10 09:07:33;;;;;;;14.70;6.15;;;;;;;;;;5132794;27;20123;-65
2022/06/10 09:10:02;;;;;;;11.10;5.63;;;;;;;;;;5125087;27;20047;-65
2022/06/10 09:12:28;;;;;;;11.18;6.50;;;;;;;;;;5114237;28;20066;-65
2022/06/10 09:14:58;;;;;;;16.73;5.95;;;;;;;;;;5132625;27;20451;-65
2022/06/10 09:17:33;;;;;;;15.07;6.25;;;;;;;;;;5114645;28;20083;-65
2022/06/10 09:20:10;;;;;;;14.98;6.90;;;;;;;;;;5120277;28;20039;-65
2022/06/10 09:23:03;;;;;;;12.95;6.20;;;;;;;;;;5102307;28;20036;-65
2022/06/10 09:25:32;;;;;;;12.52;6.30;;;;;;;;;;5089960;28;20055;-65
2022/06/10 09:28:00;;;;;;;18.42;6.93;;;;;;;;;;5093545;28;20524;-65
2022/06/10 09:30:35;;;;;;;12.40;5.68;;;;;;;;;;5119658;28;20039;-65
2022/06/10 09:33:30;;;;;;;15.38;5.80;;;;;;;;;;5131372;28;20045;-66
2022/06/10 09:36:02;;;;;;;13.52;5.63;;;;;;;;;;5098936;28;20396;-65
2022/06/10 09:38:46;;;;;;;13.10;4.80;;;;;;;;;;5113432;28;20042;-66
2022/06/10 09:41:12;;;;;;;11.57;5.03;;;;;;;;;;5124812;27;20042;-66
2022/06/10 09:43:42;;;;;;;8.60;4.65;;;;;;;;;;5126765;27;20035;-65
2022/06/10 09:46:26;;;;;;;13.65;5.10;;;;;;;;;;5127841;27;20039;-66
2022/06/10 09:49:12;;;;;;;11.05;4.47;;;;;;;;;;5097134;28;20075;-65
2022/06/10 09:51:50;;;;;;;10.95;4.30;;;;;;;;;;5127695;27;20075;-66
2022/06/10 09:54:19;;;;;;;9.80;4.03;;;;;;;;;;5136077;27;20067;-66
2022/06/10 09:56:54;;;;;;;8.52;3.72;;;;;;;;;;5136268;27;20066;-66
2022/06/10 09:59:29;;;;;;;9.02;3.63;;;;;;;;;;5132922;27;20046;-65
2022/06/10 10:02:14;;;;;;;12.10;4.28;;;;;;;;;;5128970;27;20047;-65
2022/06/10 10:04:59;;;;;;;10.48;3.45;;;;;;;;;;5115348;28;20488;-65
2022/06/10 10:07:34;;;;;;;11.15;3.95;;;;;;;;;;5115491;28;20058;-65
2022/06/10 10:10:13;;;;;;;9.00;3.90;;;;;;;;;;5110361;27;20499;-66
2022/06/10 10:12:58;;;;;;;12.55;3.90;;;;;;;;;;5119329;27;20043;-66
2022/06/10 10:15:26;;;;;;;14.60;3.95;;;;;;;;;;5123339;27;20084;-65
2022/06/10 10:17:52;;;;;;;9.82;3.75;;;;;;;;;;5115721;27;20481;-65
2022/06/10 10:20:37;;;;;;;10.50;3.88;;;;;;;;;;5130065;27;20032;-66
2022/06/10 10:23:10;;;;;;;13.70;3.85;;;;;;;;;;5125283;27;20083;-66
2022/06/10 10:25:38;;;;;;;8.85;4.03;;;;;;;;;;5127262;27;20031;-66
2022/06/10 10:28:12;;;;;;;9.07;3.47;;;;;;;;;;5126398;27;20047;-66
2022/06/10 10:30:42;;;;;;;7.72;3.83;;;;;;;;;;5121445;27;20040;-66
2022/06/10 10:33:11;;;;;;;13.32;4.38;;;;;;;;;;5122817;27;20100;-66
2022/06/10 10:35:39;;;;;;;10.43;3.50;;;;;;;;;;5114963;28;20071;-66
2022/06/10 10:38:07;;;;;;;7.05;3.53;;;;;;;;;;5114983;28;20039;-65
2022/06/10 10:40:46;;;;;;;8.23;3.90;;;;;;;;;;5114265;27;20071;-65
2022/06/10 10:43:21;;;;;;;8.13;2.80;;;;;;;;;;5134919;27;20047;-66
2022/06/10 10:45:55;;;;;;;10.75;3.90;;;;;;;;;;5114799;28;20055;-66
2022/06/10 10:48:30;;;;;;;6.28;3.80;;;;;;;;;;5114858;28;20433;-66
2022/06/10 10:51:02;;;;;;;9.38;4.10;;;;;;;;;;5112589;27;20572;-65
2022/06/10 10:53:34;;;;;;;10.18;4.68;;;;;;;;;;5125567;27;20496;-65
2022/06/10 10:56:01;;;;;;;13.82;4.57;;;;;;;;;;5117101;27;20114;-66
2022/06/10 10:58:29;;;;;;;10.85;5.65;;;;;;;;;;5133509;27;20037;-66
2022/06/10 11:01:01;;;;;;;11.23;4.88;;;;;;;;;;5116609;27;20077;-65
2022/06/10 11:03:30;;;;;;;11.13;5.07;;;;;;;;;;5118760;27;20061;-66
2022/06/10 11:05:57;;;;;;;9.30;5.05;;;;;;;;;;5129264;27;20173;-66
2022/06/10 11:08:23;;;;;;;11.23;5.00;;;;;;;;;;5132397;27;20023;-66
2022/06/10 11:10:50;;;;;;;11.68;5.50;;;;;;;;;;5122117;27;20067;-66
2022/06/10 11:13:19;;;;;;;11.70;4.93;;;;;;;;;;5113902;28;20039;-65
2022/06/10 11:15:45;;;;;;;11.10;5.15;;;;;;;;;;5113306;27;20512;-65
2022/06/10 11:18:13;;;;;;;9.30;5.15;;;;;;;;;;5123030;27;20031;-65
2022/06/10 11:20:39;;;;;;;8.90;4.75;;;;;;;;;;5126936;27;20035;-65
2022/06/10 11:23:18;;;;;;;9.55;4.00;;;;;;;;;;5114716;27;20039;-65
2022/06/10 11:25:46;;;;;;;8.25;3.65;;;;;;;;;;5116051;27;20450;-65
2022/06/10 11:28:22;;;;;;;10.48;3.63;;;;;;;;;;5114002;28;20416;-65
2022/06/10 11:30:49;;;;;;;9.45;4.00;;;;;;;;;;5114663;27;20173;-65
2022/06/10 11:33:38;;;;;;;7.22;3.65;;;;;;;;;;5123916;27;20063;-65
2022/06/10 11:36:04;;;;;;;10.90;4.32;;;;;;;;;;5121617;27;20039;-65
2022/06/10 11:38:31;;;;;;;11.00;4.20;;;;;;;;;;5125679;27;20035;-65
2022/06/10 11:40:58;;;;;;;10.48;4.03;;;;;;;;;;5133692;27;20038;-65
2022/06/10 11:43:28;;;;;;;7.45;3.58;;;;;;;;;;5134292;27;20066;-65
2022/06/10 11:46:02;;;;;;;9.13;4.40;;;;;;;;;;5124529;27;20491;-65
2022/06/10 11:48:44;;;;;;;9.75;3.60;;;;;;;;;;5114143;27;20040;-65
2022/06/10 11:51:26;;;;;;;7.38;3.60;;;;;;;;;;5112891;28;20036;-65
2022/06/10 11:53:55;;;;;;;8.90;3.10;;;;;;;;;;5134299;27;20118;-65
2022/06/10 12:02:10;;;;;;;7.65;3.42;;;;;;;;;;5113260;28;20122;-65
2022/06/10 12:04:40;;;;;;;9.07;3.22;;;;;;;;;;5112457;28;20404;-65
2022/06/10 12:07:10;;;;;;;9.50;3.40;;;;;;;;;;5121454;27;20054;-65
2022/06/10 12:09:40;;;;;;;8.65;3.50;;;;;;;;;;5133729;27;20039;-65
2022/06/10 12:12:12;;;;;;;8.68;3.40;;;;;;;;;;5131823;27;20038;-65
2022/06/10 12:14:43;;;;;;;9.70;3.42;;;;;;;;;;5124598;27;20035;-65
2022/06/10 12:17:12;;;;;;;7.68;3.47;;;;;;;;;;5133908;27;20062;-65
2022/06/10 12:19:44;;;;;;;7.43;3.30;;;;;;;;;;5109917;28;20122;-65
2022/06/10 12:22:11;;;;;;;5.18;3.17;;;;;;;;;;5129824;27;20046;-65
2022/06/10 12:24:38;;;;;;;12.43;3.20;;;;;;;;;;5133206;27;20050;-65
2022/06/10 12:27:06;;;;;;;8.30;3.53;;;;;;;;;;5129538;27;20039;-65
2022/06/10 12:30:02;;;;;;;10.50;3.20;;;;;;;;;;5122061;27;20035;-65
2022/06/10 12:32:31;;;;;;;5.25;3.20;;;;;;;;;;5117981;27;20416;-65
2022/06/10 12:34:59;;;;;;;8.88;3.35;;;;;;;;;;5124605;27;20102;-65
2022/06/10 12:37:31;;;;;;;11.30;3.10;;;;;;;;;;5122193;27;20046;-65
2022/06/10 12:40:20;;;;;;;8.30;2.83;;;;;;;;;;5114564;27;20093;-66
2022/06/10 12:42:46;;;;;;;5.22;2.88;;;;;;;;;;5123544;27;20063;-66
2022/06/10 12:45:18;;;;;;;8.35;3.17;;;;;;;;;;5124109;27;20098;-66
2022/06/10 12:47:44;;;;;;;10.32;2.85;;;;;;;;;;5102712;27;20031;-66
2022/06/10 12:50:37;;;;;;;10.13;3.15;;;;;;;;;;5119715;27;20496;-66
2022/06/10 12:53:23;;;;;;;9.30;3.00;;;;;;;;;;5115904;27;20503;-66
2022/06/10 12:55:49;;;;;;;6.57;3.00;;;;;;;;;;5113880;27;20446;-65
2022/06/10 12:58:34;;;;;;;7.75;2.67;;;;;;;;;;5127401;27;20058;-66
2022/06/10 13:01:12;;;;;;;11.27;3.58;;;;;;;;;;5114251;27;20040;-66
2022/06/10 13:03:39;;;;;;;5.72;2.63;;;;;;;;;;5114261;27;20034;-66
2022/06/10 13:06:23;;;;;;;8.88;3.00;;;;;;;;;;5123039;27;20066;-66
2022/06/10 13:08:51;;;;;;;6.35;2.92;;;;;;;;;;5118051;28;20079;-66
2022/06/10 13:11:46;;;;;;;7.88;2.38;;;;;;;;;;5122881;27;20055;-66
2022/06/10 13:14:23;;;;;;;6.20;2.33;;;;;;;;;;5102090;27;20054;-66
2022/06/10 13:16:58;;;;;;;6.53;2.60;;;;;;;;;;5118832;27;20124;-66
2022/06/10 13:19:43;;;;;;;6.90;2.70;;;;;;;;;;5112399;28;20453;-66
2022/06/10 13:22:18;;;;;;;6.57;2.40;;;;;;;;;;5122886;28;20395;-66
2022/06/10 13:24:44;;;;;;;8.30;2.80;;;;;;;;;;5115741;28;20165;-66
2022/06/10 13:27:20;;;;;;;9.30;2.70;;;;;;;;;;5095234;28;20066;-66
2022/06/10 13:29:50;;;;;;;9.32;2.70;;;;;;;;;;5098794;28;20047;-66
2022/06/10 13:32:16;;;;;;;7.60;2.90;;;;;;;;;;5120063;28;20031;-66
2022/06/10 13:34:42;;;;;;;7.80;2.97;;;;;;;;;;5129961;28;20484;-66
2022/06/10 13:37:15;;;;;;;8.95;2.67;;;;;;;;;;5124702;28;20038;-66
2022/06/10 13:39:43;;;;;;;7.70;3.03;;;;;;;;;;5117173;28;20373;-66
2022/06/10 13:42:33;;;;;;;10.50;2.70;;;;;;;;;;5122029;28;20517;-65
2022/06/10 13:45:04;;;;;;;10.15;3.13;;;;;;;;;;5110148;28;20504;-65
2022/06/10 13:47:30;;;;;;;;;;;;;;;;;;5105185;28;20108;-66
2022/06/10 13:52:43;;;;;;;10.20;3.00;;;;;;;;;;5118181;28;20079;-66
2022/06/10 13:55:18;;;;;;;9.90;3.13;;;;;;;;;;5128574;28;20039;-65
2022/06/10 13:57:45;;;;;;;9.23;2.65;;;;;;;;;;5122927;28;20050;-65
2022/06/10 14:00:20;;;;;;;8.43;3.25;;;;;;;;;;5124164;28;20050;-65
2022/06/10 14:02:47;;;;;;;8.55;3.53;;;;;;;;;;5121609;28;20146;-65
2022/06/10 14:05:18;;;;;;;7.07;2.80;;;;;;;;;;5117921;28;20039;-65
2022/06/10 14:07:45;;;;;;;10.50;3.30;;;;;;;;;;5128817;28;20415;-65
2022/06/10 14:10:17;;;;;;;9.07;3.30;;;;;;;;;;5096373;28;20442;-65
2022/06/10 14:12:52;;;;;;;7.90;2.63;;;;;;;;;;5098220;28;20096;-66
2022/06/10 14:15:18;;;;;;;6.25;3.00;;;;;;;;;;5096395;28;20075;-65
2022/06/10 14:17:49;;;;;;;6.68;3.00;;;;;;;;;;5125133;28;20491;-65
2022/06/10 14:20:15;;;;;;;10.52;3.58;;;;;;;;;;5120563;28;20058;-66
2022/06/10 14:22:46;;;;;;;7.82;3.35;;;;;;;;;;5106360;22;20043;-63
2022/06/10 14:25:14;;;;;;;9.93;3.30;;;;;;;;;;5091159;28;20059;-63
2022/06/10 14:27:45;;;;;;;7.72;3.25;;;;;;;;;;5086648;28;20044;-63
2022/06/10 14:30:17;;;;;;;5.75;2.83;;;;;;;;;;5084690;28;20036;-63
2022/06/10 14:32:51;;;;;;;8.00;2.95;;;;;;;;;;5092376;28;20072;-63
2022/06/10 14:35:27;;;;;;;6.15;2.92;;;;;;;;;;5091778;28;20511;-64
2022/06/10 14:38:04;;;;;;;8.73;3.30;;;;;;;;;;5093455;28;20117;-63
2022/06/10 14:40:31;;;;;;;9.10;3.08;;;;;;;;;;5085450;28;20044;-63
2022/06/10 14:43:02;;;;;;;7.10;3.22;;;;;;;;;;5091123;28;20040;-63
2022/06/10 14:45:34;;;;;;;10.10;3.00;;;;;;;;;;5093809;28;20528;-63
2022/06/10 14:48:06;;;;;;;5.28;2.58;;;;;;;;;;5093657;28;20413;-63
2022/06/10 14:50:37;;;;;;;8.15;3.20;;;;;;;;;;5088786;28;20119;-63
2022/06/10 14:53:13;;;;;;;4.80;2.75;;;;;;;;;;5069195;28;20047;-63
2022/06/10 14:55:39;;;;;;;8.15;3.00;;;;;;;;;;5083114;28;20414;-64
2022/06/10 14:58:09;;;;;;;7.53;3.28;;;;;;;;;;5090333;28;20036;-63
2022/06/10 15:00:35;;;;;;;5.63;2.83;;;;;;;;;;5090206;28;20498;-64
2022/06/10 15:03:02;;;;;;;6.95;3.30;;;;;;;;;;5089846;28;20314;-64
2022/06/10 15:08:18;;;;;;;7.15;2.92;;;;;;;;;;5087672;28;20164;-63
2022/06/10 15:10:46;;;;;;;13.18;3.72;;;;;;;;;;5084995;28;20048;-63
2022/06/10 15:13:15;;;;;;;11.48;3.30;;;;;;;;;;5092170;28;20088;-64
2022/06/10 15:15:41;;;;;;;12.70;3.60;;;;;;;;;;5092114;28;20044;-64